createdAt,value
2018-07-03T00:01:28.567Z,15.57
2018-07-03T00:04:32.218Z,15.54
2018-07-03T00:07:36.192Z,15.48
2018-07-03T00:10:39.904Z,15.43
2018-07-03T00:13:43.569Z,15.38
2018-07-03T00:16:52.429Z,15.31
2018-07-03T00:19:55.993Z,15.24
2018-07-03T00:22:59.789Z,15.22
2018-07-03T00:26:03.396Z,15.19
2018-07-03T00:29:07.006Z,15.10
2018-07-03T00:32:10.613Z,15.03
2018-07-03T00:35:14.238Z,14.99
2018-07-03T00:38:17.808Z,14.97
2018-07-03T00:41:21.392Z,14.94
2018-07-03T00:44:24.987Z,14.94
2018-07-03T00:47:28.558Z,14.88
2018-07-03T00:50:32.287Z,14.87
2018-07-03T00:53:35.874Z,14.86
2018-07-03T00:56:39.502Z,14.84
2018-07-03T00:59:54.212Z,14.81
2018-07-03T01:02:57.793Z,14.74
2018-07-03T01:06:01.332Z,14.67
2018-07-03T01:09:07.178Z,14.65
2018-07-03T01:12:10.843Z,14.59
2018-07-03T01:15:14.554Z,14.53
2018-07-03T01:18:18.173Z,14.54
2018-07-03T01:21:21.774Z,14.47
2018-07-03T01:24:25.492Z,14.41
2018-07-03T01:27:29.209Z,14.34
2018-07-03T01:30:32.711Z,14.29
2018-07-03T01:33:36.370Z,14.26
2018-07-03T01:36:39.947Z,14.20
2018-07-03T01:39:43.603Z,14.12
2018-07-03T01:42:47.180Z,14.05
2018-07-03T01:45:50.799Z,14.03
2018-07-03T01:48:54.339Z,13.96
2018-07-03T01:51:57.987Z,13.92
2018-07-03T01:55:01.678Z,13.84
2018-07-03T01:58:05.363Z,13.81
2018-07-03T02:01:08.943Z,13.79
2018-07-03T02:04:12.939Z,13.77
2018-07-03T02:07:16.557Z,13.73
2018-07-03T02:10:20.238Z,13.70
2018-07-03T02:13:23.820Z,13.67
2018-07-03T02:16:27.444Z,13.61
2018-07-03T02:19:31.143Z,13.53
2018-07-03T02:22:34.693Z,13.49
2018-07-03T02:25:38.450Z,13.48
2018-07-03T02:28:42.014Z,13.50
2018-07-03T02:31:45.618Z,13.44
2018-07-03T02:34:49.198Z,13.41
2018-07-03T02:37:52.924Z,13.39
2018-07-03T02:40:56.593Z,13.36
2018-07-03T02:44:00.206Z,13.35
2018-07-03T02:47:03.990Z,13.33
2018-07-03T02:50:07.784Z,13.24
2018-07-03T02:53:11.470Z,13.22
2018-07-03T02:56:15.020Z,13.16
2018-07-03T02:59:18.660Z,13.17
2018-07-03T03:02:22.209Z,13.12
2018-07-03T03:05:25.914Z,13.14
2018-07-03T03:08:29.525Z,13.10
2018-07-03T03:11:33.190Z,13.10
2018-07-03T03:14:36.878Z,13.12
2018-07-03T03:17:40.471Z,13.23
2018-07-03T03:20:44.086Z,13.43
2018-07-03T03:23:47.838Z,13.65
2018-07-03T03:26:51.360Z,13.98
2018-07-03T03:29:54.911Z,14.35
2018-07-03T03:32:58.511Z,14.74
2018-07-03T03:36:02.189Z,15.19
2018-07-03T03:39:07.829Z,15.65
2018-07-03T03:42:11.380Z,16.10
2018-07-03T03:45:15.095Z,16.56
2018-07-03T03:48:18.868Z,17.09
2018-07-03T03:51:22.672Z,17.45
2018-07-03T03:54:26.451Z,17.88
2018-07-03T03:57:30.359Z,18.38
2018-07-03T04:00:34.101Z,18.95
2018-07-03T04:03:37.761Z,19.50
2018-07-03T04:06:41.432Z,18.83
2018-07-03T04:09:45.042Z,18.42
2018-07-03T04:12:48.775Z,19.04
2018-07-03T04:15:52.362Z,18.85
2018-07-03T04:18:55.959Z,19.20
2018-07-03T04:21:59.660Z,19.94
2018-07-03T04:25:03.472Z,20.05
2018-07-03T04:28:07.217Z,20.88
2018-07-03T04:31:10.888Z,20.46
2018-07-03T04:34:14.537Z,20.91
2018-07-03T04:37:18.271Z,21.17
2018-07-03T04:40:22.010Z,21.08
2018-07-03T04:43:25.686Z,21.67
2018-07-03T04:46:29.316Z,21.64
2018-07-03T04:49:33.166Z,21.61
2018-07-03T04:52:36.787Z,22.08
2018-07-03T04:55:40.532Z,22.40
2018-07-03T04:58:44.380Z,23.03
2018-07-03T05:01:47.986Z,22.84
2018-07-03T05:04:51.712Z,23.53
2018-07-03T05:07:55.334Z,23.25
2018-07-03T05:10:59.036Z,23.47
2018-07-03T05:14:02.693Z,24.21
2018-07-03T05:17:06.455Z,25.50
2018-07-03T05:20:10.155Z,26.10
2018-07-03T05:23:13.894Z,26.54
2018-07-03T05:26:17.467Z,26.75
2018-07-03T05:29:21.448Z,25.98
2018-07-03T05:32:25.290Z,25.01
2018-07-03T05:35:29.006Z,25.12
2018-07-03T05:38:32.533Z,24.56
2018-07-03T05:41:36.387Z,24.29
2018-07-03T05:44:40.103Z,25.14
2018-07-03T05:47:43.870Z,25.07
2018-07-03T05:50:47.473Z,25.33
2018-07-03T05:53:51.218Z,25.90
2018-07-03T05:56:55.036Z,26.30
2018-07-03T05:59:58.714Z,26.94
2018-07-03T06:03:02.507Z,26.50
2018-07-03T06:06:06.277Z,27.07
2018-07-03T06:09:10.747Z,27.26
2018-07-03T06:12:14.392Z,27.27
2018-07-03T06:15:18.008Z,27.21
2018-07-03T06:18:21.841Z,27.54
2018-07-03T06:21:25.606Z,28.37
2018-07-03T06:24:29.353Z,27.68
2018-07-03T06:27:32.975Z,28.46
2018-07-03T06:30:36.738Z,28.00
2018-07-03T06:33:40.526Z,27.36
2018-07-03T06:36:44.185Z,28.26
2018-07-03T06:39:47.841Z,27.56
2018-07-03T06:42:51.441Z,27.95
2018-07-03T06:45:55.661Z,28.90
2018-07-03T06:48:59.475Z,29.23
2018-07-03T06:52:03.063Z,28.17
2018-07-03T06:55:06.730Z,27.26
2018-07-03T06:58:10.337Z,27.94
2018-07-03T07:01:13.972Z,28.28
2018-07-03T07:04:17.823Z,26.78
2018-07-03T07:07:21.494Z,26.78
2018-07-03T07:10:25.093Z,25.64
2018-07-03T07:13:28.668Z,25.32
2018-07-03T07:16:32.323Z,24.82
2018-07-03T07:19:36.052Z,24.62
2018-07-03T07:22:39.678Z,24.26
2018-07-03T07:25:43.473Z,23.92
2018-07-03T07:28:47.157Z,24.18
2018-07-03T07:31:51.791Z,23.82
2018-07-03T07:34:55.479Z,23.96
2018-07-03T07:37:59.156Z,23.80
2018-07-03T07:41:02.874Z,23.59
2018-07-03T07:44:07.224Z,23.77
2018-07-03T07:47:12.330Z,24.10
2018-07-03T07:50:16.033Z,24.06
2018-07-03T07:53:19.816Z,23.36
2018-07-03T07:56:23.696Z,24.41
2018-07-03T07:59:27.438Z,24.11
2018-07-03T08:02:31.199Z,24.43
2018-07-03T08:05:34.962Z,24.30
2018-07-03T08:08:38.704Z,24.06
2018-07-03T08:11:42.372Z,24.33
2018-07-03T08:14:46.025Z,24.61
2018-07-03T08:17:49.774Z,24.87
2018-07-03T08:20:53.404Z,24.61
2018-07-03T08:23:57.128Z,24.68
2018-07-03T08:27:01.104Z,24.75
2018-07-03T08:30:05.347Z,24.63
2018-07-03T08:33:11.622Z,23.56
2018-07-03T08:36:15.313Z,24.26
2018-07-03T08:39:19.149Z,24.56
2018-07-03T08:42:22.812Z,24.41
2018-07-03T08:45:26.559Z,24.25
2018-07-03T08:48:30.228Z,24.73
2018-07-03T08:51:33.920Z,25.09
2018-07-03T08:54:37.529Z,25.43
2018-07-03T08:57:41.382Z,25.67
2018-07-03T09:00:45.219Z,25.22
2018-07-03T09:03:49.062Z,25.42
2018-07-03T09:06:52.703Z,25.90
2018-07-03T09:09:56.358Z,25.74
2018-07-03T09:13:00.027Z,25.98
2018-07-03T09:16:03.869Z,25.77
2018-07-03T09:19:07.807Z,25.88
2018-07-03T09:22:11.483Z,25.67
2018-07-03T09:25:15.239Z,25.20
2018-07-03T09:28:18.833Z,25.22
2018-07-03T09:31:22.536Z,25.33
2018-07-03T09:34:26.144Z,25.54
2018-07-03T09:37:29.890Z,25.90
2018-07-03T09:40:33.551Z,25.53
2018-07-03T09:43:37.303Z,26.32
2018-07-03T09:46:41.138Z,26.26
2018-07-03T09:49:44.774Z,26.55
2018-07-03T09:52:48.464Z,26.09
2018-07-03T09:55:52.128Z,26.50
2018-07-03T09:58:56.045Z,26.48
2018-07-03T10:01:59.728Z,26.21
2018-07-03T10:05:03.468Z,26.33
2018-07-03T10:08:07.223Z,26.82
2018-07-03T10:11:10.933Z,26.80
2018-07-03T10:14:14.634Z,26.73
2018-07-03T10:17:18.393Z,27.16
2018-07-03T10:20:21.994Z,27.68
2018-07-03T10:23:25.729Z,27.87
2018-07-03T10:26:29.440Z,27.08
2018-07-03T10:29:33.134Z,27.51
2018-07-03T10:32:36.759Z,27.30
2018-07-03T10:35:40.456Z,27.40
2018-07-03T10:38:49.275Z,27.53
2018-07-03T10:41:53.320Z,27.26
2018-07-03T10:44:57.211Z,26.54
2018-07-03T10:48:00.925Z,27.12
2018-07-03T10:51:04.527Z,27.23
2018-07-03T10:54:08.400Z,26.80
2018-07-03T10:57:12.344Z,27.07
2018-07-03T11:00:16.165Z,26.68
2018-07-03T11:03:19.817Z,26.60
2018-07-03T11:06:23.438Z,26.13
2018-07-03T11:09:27.124Z,26.13
2018-07-03T11:12:30.805Z,26.02
2018-07-03T11:15:34.585Z,25.51
2018-07-03T11:18:38.307Z,25.13
2018-07-03T11:21:41.980Z,25.42
2018-07-03T11:24:45.640Z,25.16
2018-07-03T11:27:49.317Z,25.30
2018-07-03T11:30:52.989Z,25.72
2018-07-03T11:33:56.644Z,25.65
2018-07-03T11:37:00.350Z,25.72
2018-07-03T11:40:04.097Z,25.74
2018-07-03T11:43:08.059Z,25.69
2018-07-03T11:46:11.715Z,25.88
2018-07-03T11:49:15.634Z,26.07
2018-07-03T11:52:19.283Z,26.23
2018-07-03T11:55:23.681Z,26.31
2018-07-03T11:58:27.314Z,26.39
2018-07-03T12:01:31.167Z,26.66
2018-07-03T12:04:34.761Z,26.73
2018-07-03T12:07:38.498Z,26.33
2018-07-03T12:10:42.385Z,26.20
2018-07-03T12:13:46.205Z,26.56
2018-07-03T12:16:50.100Z,26.39
2018-07-03T12:19:53.818Z,26.15
2018-07-03T12:22:57.571Z,26.52
2018-07-03T12:26:01.421Z,26.81
2018-07-03T12:29:05.970Z,27.15
2018-07-03T12:32:09.680Z,26.52
2018-07-03T12:35:13.387Z,26.82
2018-07-03T12:38:17.217Z,27.43
2018-07-03T12:41:20.865Z,27.29
2018-07-03T12:44:24.550Z,26.77
2018-07-03T12:47:28.336Z,26.75
2018-07-03T12:50:32.050Z,27.24
2018-07-03T12:53:35.691Z,27.42
2018-07-03T12:56:39.437Z,27.23
2018-07-03T12:59:43.160Z,26.94
2018-07-03T13:02:46.921Z,26.93
2018-07-03T13:05:50.771Z,27.37
2018-07-03T13:08:54.475Z,27.49
2018-07-03T13:11:58.217Z,27.67
2018-07-03T13:15:02.040Z,27.43
2018-07-03T13:18:11.506Z,27.44
2018-07-03T13:21:15.251Z,27.32
2018-07-03T13:24:19.157Z,27.10
2018-07-03T13:27:22.835Z,27.02
2018-07-03T13:30:26.576Z,26.95
2018-07-03T13:33:30.255Z,26.98
2018-07-03T13:36:34.116Z,27.46
2018-07-03T13:39:37.930Z,27.60
2018-07-03T13:42:41.629Z,27.64
2018-07-03T13:45:45.375Z,27.75
2018-07-03T13:48:49.127Z,27.68
2018-07-03T13:51:52.803Z,27.95
2018-07-03T13:54:56.390Z,27.49
2018-07-03T13:58:00.117Z,27.59
2018-07-03T14:01:03.867Z,27.70
2018-07-03T14:04:07.716Z,28.03
2018-07-03T14:07:11.526Z,27.78
2018-07-03T14:10:15.257Z,27.85
2018-07-03T14:13:18.850Z,27.69
2018-07-03T14:16:22.490Z,27.47
2018-07-03T14:19:26.333Z,27.63
2018-07-03T14:22:30.034Z,27.47
2018-07-03T14:25:33.967Z,27.58
2018-07-03T14:28:37.715Z,27.63
2018-07-03T14:31:41.446Z,27.74
2018-07-03T14:34:45.114Z,27.52
2018-07-03T14:37:48.864Z,27.51
2018-07-03T14:40:52.627Z,27.56
2018-07-03T14:43:56.386Z,27.75
2018-07-03T14:47:00.112Z,27.57
2018-07-03T14:50:03.808Z,27.39
2018-07-03T14:53:07.545Z,27.72
2018-07-03T14:56:11.203Z,27.65
2018-07-03T14:59:14.906Z,27.80
2018-07-03T15:02:18.611Z,27.97
2018-07-03T15:05:22.202Z,27.91
2018-07-03T15:08:25.936Z,27.78
2018-07-03T15:11:30.484Z,27.78
2018-07-03T15:14:34.212Z,27.69
2018-07-03T15:17:37.907Z,27.76
2018-07-03T15:20:41.847Z,27.85
2018-07-03T15:23:45.756Z,27.88
2018-07-03T15:26:49.392Z,27.74
2018-07-03T15:29:53.048Z,28.00
2018-07-03T15:32:56.673Z,27.76
2018-07-03T15:36:00.355Z,27.81
2018-07-03T15:39:06.623Z,27.81
2018-07-03T15:42:10.302Z,27.76
2018-07-03T15:45:14.992Z,27.89
2018-07-03T15:48:18.651Z,27.49
2018-07-03T15:51:22.361Z,27.63
2018-07-03T15:54:26.011Z,27.75
2018-07-03T15:57:29.650Z,27.80
2018-07-03T16:00:33.478Z,27.80
2018-07-03T16:04:13.420Z,27.74
2018-07-03T16:07:28.242Z,27.85
2018-07-03T16:10:32.122Z,27.70
2018-07-03T16:13:35.873Z,27.76
2018-07-03T16:16:39.742Z,27.64
2018-07-03T16:19:48.518Z,27.85
2018-07-03T16:22:52.232Z,27.81
2018-07-03T16:25:56.133Z,27.82
2018-07-03T16:28:59.919Z,27.94
2018-07-03T16:32:03.702Z,27.63
2018-07-03T16:35:07.457Z,27.91
2018-07-03T16:38:12.008Z,27.82
2018-07-03T16:41:15.693Z,27.74
2018-07-03T16:44:19.482Z,27.69
2018-07-03T16:47:23.277Z,27.75
2018-07-03T16:50:27.008Z,28.01
2018-07-03T16:53:30.663Z,28.47
2018-07-03T16:56:34.441Z,28.69
2018-07-03T16:59:38.097Z,28.88
2018-07-03T17:02:41.827Z,29.54
2018-07-03T17:05:45.570Z,31.14
2018-07-03T17:08:49.473Z,32.73
2018-07-03T17:11:53.537Z,33.75
2018-07-03T17:14:57.167Z,33.32
2018-07-03T17:18:00.888Z,32.70
2018-07-03T17:21:04.667Z,34.59
2018-07-03T17:24:08.664Z,33.91
2018-07-03T17:27:12.285Z,33.67
2018-07-03T17:30:16.118Z,33.41
2018-07-03T17:33:19.898Z,33.60
2018-07-03T17:36:23.603Z,33.91
2018-07-03T17:39:38.434Z,34.73
2018-07-03T17:42:53.304Z,34.52
2018-07-03T17:46:03.428Z,34.89
2018-07-03T17:49:07.630Z,34.47
2018-07-03T17:52:11.348Z,34.39
2018-07-03T17:55:15.098Z,34.17
2018-07-03T17:58:18.783Z,34.16
2018-07-03T18:01:22.909Z,34.46
2018-07-03T18:04:26.649Z,34.44
2018-07-03T18:07:30.295Z,34.57
2018-07-03T18:10:34.064Z,34.25
2018-07-03T18:13:37.785Z,33.86
2018-07-03T18:16:41.503Z,32.94
2018-07-03T18:19:45.196Z,31.09
2018-07-03T18:22:48.933Z,29.06
2018-07-03T18:25:52.708Z,28.11
2018-07-03T18:28:56.474Z,28.04
2018-07-03T18:32:00.169Z,28.11
2018-07-03T18:35:04.152Z,28.25
2018-07-03T18:38:07.918Z,28.15
2018-07-03T18:41:11.887Z,27.54
2018-07-03T18:44:15.669Z,26.91
2018-07-03T18:47:19.538Z,26.20
2018-07-03T18:50:23.250Z,25.79
2018-07-03T18:53:26.939Z,25.02
2018-07-03T18:56:30.687Z,24.71
2018-07-03T18:59:34.623Z,24.11
2018-07-03T19:02:38.298Z,23.96
2018-07-03T19:05:42.074Z,23.71
2018-07-03T19:08:46.075Z,23.42
2018-07-03T19:11:49.975Z,23.26
2018-07-03T19:14:53.742Z,23.07
2018-07-03T19:17:57.575Z,22.90
2018-07-03T19:21:01.310Z,22.76
2018-07-03T19:24:05.170Z,22.65
2018-07-03T19:27:08.880Z,22.47
2018-07-03T19:30:12.768Z,22.35
2018-07-03T19:33:16.401Z,22.21
2018-07-03T19:36:20.174Z,22.05
2018-07-03T19:39:24.010Z,22.02
2018-07-03T19:42:27.816Z,21.82
2018-07-03T19:45:31.289Z,21.52
2018-07-03T19:48:35.018Z,21.44
2018-07-03T19:51:38.835Z,21.30
2018-07-03T19:54:42.639Z,21.17
2018-07-03T19:57:46.392Z,21.14
2018-07-03T20:00:50.873Z,20.87
2018-07-03T20:03:54.526Z,20.88
2018-07-03T20:06:58.170Z,20.74
2018-07-03T20:10:01.799Z,20.70
2018-07-03T20:13:05.953Z,20.58
2018-07-03T20:16:09.483Z,20.47
2018-07-03T20:19:14.467Z,20.37
2018-07-03T20:22:18.179Z,20.20
2018-07-03T20:25:21.975Z,20.03
2018-07-03T20:28:26.479Z,19.87
2018-07-03T20:31:30.206Z,19.76
2018-07-03T20:34:33.884Z,19.65
2018-07-03T20:37:51.725Z,19.56
2018-07-03T20:41:11.399Z,19.38
2018-07-03T20:44:15.036Z,19.22
2018-07-03T20:47:18.738Z,19.20
2018-07-03T20:50:22.427Z,19.03
2018-07-03T20:53:25.998Z,19.12
2018-07-03T20:56:29.679Z,19.00
2018-07-03T20:59:33.367Z,18.95
2018-07-03T21:02:37.236Z,18.85
2018-07-03T21:05:41.042Z,18.78
2018-07-03T21:08:44.748Z,18.76
2018-07-03T21:11:49.131Z,18.70
2018-07-03T21:14:52.870Z,18.59
2018-07-03T21:17:56.631Z,18.57
2018-07-03T21:21:00.252Z,18.47
2018-07-03T21:24:04.248Z,18.49
2018-07-03T21:27:08.542Z,18.42
2018-07-03T21:30:12.304Z,18.34
2018-07-03T21:33:15.886Z,18.26
2018-07-03T21:36:19.510Z,18.15
2018-07-03T21:39:23.180Z,18.02
2018-07-03T21:42:26.882Z,18.00
2018-07-03T21:45:30.590Z,17.88
2018-07-03T21:48:34.331Z,17.78
2018-07-03T21:51:37.915Z,17.70
2018-07-03T21:54:41.616Z,17.59
2018-07-03T21:57:45.152Z,17.55
2018-07-03T22:00:48.845Z,17.59
2018-07-03T22:03:52.446Z,17.58
2018-07-03T22:06:56.443Z,17.55
2018-07-03T22:10:00.158Z,17.43
2018-07-03T22:13:04.294Z,17.33
2018-07-03T22:16:07.890Z,17.28
2018-07-03T22:19:11.476Z,17.24
2018-07-03T22:22:15.176Z,17.18
2018-07-03T22:25:18.872Z,17.09
2018-07-03T22:28:22.595Z,17.13
2018-07-03T22:31:26.273Z,17.11
2018-07-03T22:34:29.851Z,16.95
2018-07-03T22:37:33.501Z,16.89
2018-07-03T22:40:37.122Z,16.81
2018-07-03T22:43:40.771Z,16.73
2018-07-03T22:46:44.372Z,16.69
2018-07-03T22:49:47.983Z,16.63
2018-07-03T22:52:51.611Z,16.50
2018-07-03T22:55:55.172Z,16.43
2018-07-03T22:58:58.785Z,16.37
2018-07-03T23:02:02.335Z,16.36
2018-07-03T23:05:06.067Z,16.46
2018-07-03T23:08:09.717Z,16.34
2018-07-03T23:11:13.341Z,16.41
2018-07-03T23:14:17.010Z,16.26
2018-07-03T23:17:20.918Z,16.10
2018-07-03T23:20:24.606Z,16.15
2018-07-03T23:23:28.270Z,16.01
2018-07-03T23:26:31.953Z,16.00
2018-07-03T23:29:35.651Z,16.01
2018-07-03T23:32:39.167Z,16.03
2018-07-03T23:35:42.778Z,15.85
2018-07-03T23:38:46.490Z,15.73
2018-07-03T23:41:50.181Z,15.66
2018-07-03T23:44:53.846Z,15.60
2018-07-03T23:48:08.620Z,15.52
2018-07-03T23:51:23.438Z,15.44
2018-07-03T23:54:38.113Z,15.37
2018-07-03T23:57:52.937Z,15.30
